createdAt,value
2023-02-06T00:00:58.529Z,65.47
2023-02-06T00:03:40.694Z,66.14
2023-02-06T00:06:09.108Z,66.35
2023-02-06T00:08:37.516Z,66.24
2023-02-06T00:11:07.546Z,66.95
2023-02-06T00:13:36.450Z,67.54
2023-02-06T00:16:04.987Z,68.10
2023-02-06T00:18:33.083Z,67.50
2023-02-06T00:21:01.100Z,66.36
2023-02-06T00:23:29.123Z,67.95
2023-02-06T00:25:57.000Z,68.01
2023-02-06T00:28:25.048Z,68.28
2023-02-06T00:30:53.217Z,68.27
2023-02-06T00:33:21.489Z,67.76
2023-02-06T00:35:49.462Z,67.59
2023-02-06T00:38:17.642Z,67.59
2023-02-06T00:40:45.763Z,67.34
2023-02-06T00:43:14.035Z,66.96
2023-02-06T00:45:42.069Z,67.45
2023-02-06T00:48:10.311Z,67.64
2023-02-06T00:50:38.374Z,68.07
2023-02-06T00:53:06.326Z,68.33
2023-02-06T00:55:34.628Z,67.78
2023-02-06T00:58:02.929Z,67.04
2023-02-06T01:00:30.914Z,67.23
2023-02-06T01:02:59.048Z,66.96
2023-02-06T01:05:27.719Z,66.28
2023-02-06T01:07:56.520Z,65.89
2023-02-06T01:10:25.975Z,66.23
2023-02-06T01:12:54.030Z,65.84
2023-02-06T01:15:22.064Z,65.80
2023-02-06T01:17:50.168Z,65.49
2023-02-06T01:20:18.553Z,65.40
2023-02-06T01:22:46.506Z,65.59
2023-02-06T01:25:14.587Z,65.89
2023-02-06T01:27:42.596Z,65.44
2023-02-06T01:30:11.337Z,64.95
2023-02-06T01:32:40.170Z,65.14
2023-02-06T01:35:09.261Z,64.52
2023-02-06T01:37:37.982Z,64.36
2023-02-06T01:40:09.979Z,64.91
2023-02-06T01:42:38.700Z,64.77
2023-02-06T01:45:17.506Z,64.49
2023-02-06T01:47:45.601Z,64.06
2023-02-06T01:50:13.599Z,63.90
2023-02-06T01:52:42.252Z,64.21
2023-02-06T01:55:10.310Z,64.26
2023-02-06T01:57:39.330Z,64.32
2023-02-06T02:00:09.946Z,64.14
2023-02-06T02:02:43.636Z,64.62
2023-02-06T02:05:12.617Z,64.39
2023-02-06T02:08:10.090Z,64.27
2023-02-06T02:10:38.164Z,64.50
2023-02-06T02:13:06.213Z,64.65
2023-02-06T02:15:39.403Z,64.58
2023-02-06T02:18:16.651Z,64.92
2023-02-06T02:21:03.490Z,64.97
2023-02-06T02:23:43.484Z,65.36
2023-02-06T02:26:18.331Z,65.49
2023-02-06T02:29:15.967Z,65.39
2023-02-06T02:31:47.131Z,65.01
2023-02-06T02:34:32.513Z,66.46
2023-02-06T02:37:27.241Z,66.97
2023-02-06T02:39:55.298Z,66.96
2023-02-06T02:42:27.993Z,66.34
2023-02-06T02:45:03.381Z,66.08
2023-02-06T02:47:34.516Z,66.39
2023-02-06T02:50:03.278Z,67.31
2023-02-06T02:52:31.318Z,67.31
2023-02-06T02:55:00.620Z,66.64
2023-02-06T02:57:30.286Z,65.86
2023-02-06T03:00:00.262Z,66.11
2023-02-06T03:02:32.760Z,66.88
2023-02-06T03:05:06.540Z,67.13
2023-02-06T03:07:47.908Z,67.24
2023-02-06T03:10:22.125Z,66.77
2023-02-06T03:12:50.119Z,66.68
2023-02-06T03:15:24.674Z,66.78
2023-02-06T03:18:02.227Z,66.58
2023-02-06T03:20:31.413Z,66.57
2023-02-06T03:23:00.752Z,66.74
2023-02-06T03:25:33.917Z,66.23
2023-02-06T03:28:04.289Z,65.97
2023-02-06T03:30:33.326Z,65.36
2023-02-06T03:33:03.941Z,65.34
2023-02-06T03:35:35.068Z,66.06
2023-02-06T03:38:04.686Z,66.05
2023-02-06T03:40:32.980Z,66.31
2023-02-06T03:43:03.032Z,66.37
2023-02-06T03:45:37.440Z,66.76
2023-02-06T03:48:25.961Z,65.91
2023-02-06T03:50:56.329Z,65.88
2023-02-06T03:53:25.848Z,65.65
2023-02-06T03:55:56.499Z,66.04
2023-02-06T03:58:24.859Z,66.60
2023-02-06T04:00:53.938Z,67.15
2023-02-06T04:03:22.998Z,67.47
2023-02-06T04:05:51.003Z,67.44
2023-02-06T04:08:19.194Z,67.09
2023-02-06T04:10:47.265Z,67.42
2023-02-06T04:13:15.284Z,67.17
2023-02-06T04:15:43.312Z,65.70
2023-02-06T04:18:11.442Z,65.96
2023-02-06T04:20:41.067Z,66.50
2023-02-06T04:23:09.270Z,66.70
2023-02-06T04:25:37.539Z,66.30
2023-02-06T04:28:05.957Z,66.93
2023-02-06T04:30:34.057Z,67.17
2023-02-06T04:33:02.083Z,67.35
2023-02-06T04:35:30.061Z,67.97
2023-02-06T04:37:58.084Z,68.02
2023-02-06T04:40:26.174Z,67.71
2023-02-06T04:42:54.099Z,67.02
2023-02-06T04:45:22.182Z,65.68
2023-02-06T04:47:50.381Z,65.75
2023-02-06T04:50:18.942Z,66.19
2023-02-06T04:52:46.989Z,67.46
2023-02-06T04:55:15.076Z,67.95
2023-02-06T04:57:43.086Z,68.24
2023-02-06T05:00:11.642Z,68.07
2023-02-06T05:02:39.967Z,68.05
2023-02-06T05:05:08.698Z,68.24
2023-02-06T05:07:37.268Z,68.32
2023-02-06T05:10:05.465Z,67.73
2023-02-06T05:12:33.604Z,67.37
2023-02-06T05:15:01.761Z,67.59
2023-02-06T05:17:29.914Z,67.54
2023-02-06T05:19:58.529Z,67.33
2023-02-06T05:22:26.791Z,67.37
2023-02-06T05:24:54.854Z,67.04
2023-02-06T05:27:23.117Z,66.81
2023-02-06T05:29:51.173Z,66.72
2023-02-06T05:32:19.945Z,66.65
2023-02-06T05:34:48.028Z,66.67
2023-02-06T05:37:16.218Z,66.63
2023-02-06T05:39:44.360Z,66.50
2023-02-06T05:42:12.419Z,66.14
2023-02-06T05:44:40.676Z,66.03
2023-02-06T05:47:08.701Z,65.55
2023-02-06T05:49:36.936Z,66.12
2023-02-06T05:52:05.073Z,66.26
2023-02-06T05:54:33.134Z,66.46
2023-02-06T05:57:01.412Z,65.79
2023-02-06T05:59:29.958Z,66.78
2023-02-06T06:01:58.771Z,66.04
2023-02-06T06:04:46.275Z,66.45
2023-02-06T06:07:14.514Z,62.83
2023-02-06T06:09:42.750Z,62.79
2023-02-06T06:12:11.393Z,59.44
2023-02-06T06:14:40.878Z,58.42
2023-02-06T06:17:09.137Z,59.25
2023-02-06T06:19:37.854Z,58.51
2023-02-06T06:22:06.324Z,58.19
2023-02-06T06:24:34.399Z,60.40
2023-02-06T06:27:03.780Z,60.07
2023-02-06T06:29:31.941Z,61.21
2023-02-06T06:32:01.771Z,58.46
2023-02-06T06:34:30.886Z,57.70
2023-02-06T06:36:59.352Z,57.59
2023-02-06T06:39:27.919Z,55.91
2023-02-06T06:41:56.125Z,55.23
2023-02-06T06:44:24.162Z,55.08
2023-02-06T06:46:52.996Z,54.85
2023-02-06T06:49:22.305Z,55.51
2023-02-06T06:51:54.425Z,56.18
2023-02-06T06:54:26.102Z,57.49
2023-02-06T06:56:54.696Z,56.73
2023-02-06T06:59:24.068Z,54.14
2023-02-06T07:01:54.534Z,51.00
2023-02-06T07:04:23.184Z,48.38
2023-02-06T07:06:52.081Z,45.20
2023-02-06T07:09:22.256Z,44.17
2023-02-06T07:11:51.793Z,41.37
2023-02-06T07:14:23.278Z,40.59
2023-02-06T07:16:51.931Z,38.20
2023-02-06T07:19:22.931Z,37.24
2023-02-06T07:21:52.526Z,35.90
2023-02-06T07:24:20.887Z,34.15
2023-02-06T07:26:51.059Z,34.21
2023-02-06T07:29:39.204Z,32.05
2023-02-06T07:32:08.772Z,30.84
2023-02-06T07:34:39.680Z,32.00
2023-02-06T07:37:08.637Z,29.85
2023-02-06T07:39:41.844Z,28.51
2023-02-06T07:42:11.131Z,28.68
2023-02-06T07:44:57.409Z,28.68
2023-02-06T07:47:26.954Z,28.52
2023-02-06T07:49:55.327Z,26.77
2023-02-06T07:52:23.641Z,28.03
2023-02-06T07:54:54.640Z,28.17
2023-02-06T07:57:29.626Z,27.76
2023-02-06T08:00:00.417Z,26.61
2023-02-06T08:02:32.602Z,26.47
2023-02-06T08:05:01.743Z,26.56
2023-02-06T08:07:30.361Z,26.37
2023-02-06T08:10:04.372Z,26.51
2023-02-06T08:12:35.783Z,26.48
2023-02-06T08:15:07.444Z,26.17
2023-02-06T08:17:44.739Z,25.50
2023-02-06T08:20:19.891Z,24.94
2023-02-06T08:22:48.585Z,24.86
2023-02-06T08:25:19.124Z,24.31
2023-02-06T08:27:52.018Z,24.13
2023-02-06T08:30:20.680Z,24.22
2023-02-06T08:32:48.883Z,24.51
2023-02-06T08:35:17.075Z,23.37
2023-02-06T08:37:46.495Z,23.30
2023-02-06T08:40:16.612Z,23.39
2023-02-06T08:42:49.271Z,22.88
2023-02-06T08:45:17.592Z,23.77
2023-02-06T08:47:50.531Z,22.95
2023-02-06T08:50:24.124Z,22.09
2023-02-06T08:52:55.201Z,22.27
2023-02-06T08:55:25.831Z,22.34
2023-02-06T08:57:55.399Z,21.66
2023-02-06T09:00:29.379Z,22.43
2023-02-06T09:03:00.399Z,22.80
2023-02-06T09:05:31.532Z,22.61
2023-02-06T09:08:14.027Z,22.29
2023-02-06T09:10:48.765Z,21.82
2023-02-06T09:13:22.824Z,21.58
2023-02-06T09:16:04.407Z,20.18
2023-02-06T09:18:39.224Z,20.35
2023-02-06T09:21:11.491Z,20.21
2023-02-06T09:23:42.702Z,20.50
2023-02-06T09:26:16.635Z,19.93
2023-02-06T09:28:48.286Z,19.09
2023-02-06T09:31:20.310Z,19.04
2023-02-06T09:33:52.972Z,19.56
2023-02-06T09:36:30.676Z,19.27
2023-02-06T09:39:00.507Z,19.47
2023-02-06T09:41:35.594Z,19.32
2023-02-06T09:44:29.449Z,18.38
2023-02-06T09:47:05.319Z,18.38
2023-02-06T09:49:44.319Z,18.29
2023-02-06T09:52:20.241Z,16.76
2023-02-06T09:55:08.402Z,16.78
2023-02-06T09:58:04.727Z,16.27
2023-02-06T10:00:33.188Z,16.89
2023-02-06T10:03:17.515Z,16.10
2023-02-06T10:05:51.592Z,17.81
2023-02-06T10:08:40.166Z,17.86
2023-02-06T10:11:16.344Z,18.42
2023-02-06T10:13:49.830Z,17.58
2023-02-06T10:16:29.346Z,17.55
2023-02-06T10:19:03.582Z,16.58
2023-02-06T10:21:40.747Z,16.32
2023-02-06T10:24:09.532Z,16.77
2023-02-06T10:26:39.992Z,16.56
2023-02-06T10:29:16.820Z,16.44
2023-02-06T10:31:50.590Z,16.49
2023-02-06T10:34:21.885Z,16.34
2023-02-06T10:37:09.409Z,16.39
2023-02-06T10:40:07.112Z,15.81
2023-02-06T10:42:35.650Z,17.12
2023-02-06T10:45:18.942Z,17.06
2023-02-06T10:47:54.488Z,16.56
2023-02-06T10:50:25.676Z,16.99
2023-02-06T10:52:56.494Z,16.61
2023-02-06T10:55:29.170Z,17.04
2023-02-06T10:58:03.869Z,16.88
2023-02-06T11:00:55.799Z,15.88
2023-02-06T11:03:31.998Z,15.98
2023-02-06T11:06:11.014Z,15.32
2023-02-06T11:08:41.824Z,15.32
2023-02-06T11:11:21.888Z,15.26
2023-02-06T11:14:09.811Z,15.05
2023-02-06T11:16:38.619Z,14.85
2023-02-06T11:19:17.566Z,15.53
2023-02-06T11:21:51.120Z,16.05
2023-02-06T11:24:21.924Z,15.82
2023-02-06T11:26:55.140Z,17.14
2023-02-06T11:29:27.366Z,17.23
2023-02-06T11:31:59.552Z,17.57
2023-02-06T11:34:46.628Z,18.21
2023-02-06T11:37:34.773Z,19.18
2023-02-06T11:40:38.956Z,20.48
2023-02-06T11:43:12.990Z,20.77
2023-02-06T11:45:41.520Z,20.90
2023-02-06T11:48:31.758Z,20.43
2023-02-06T11:51:00.324Z,20.41
2023-02-06T11:53:35.453Z,20.06
2023-02-06T11:56:03.655Z,20.39
2023-02-06T11:58:32.652Z,20.99
2023-02-06T12:01:09.723Z,22.29
2023-02-06T12:03:39.579Z,23.62
2023-02-06T12:06:36.855Z,26.01
2023-02-06T12:09:10.661Z,27.95
2023-02-06T12:11:57.712Z,30.04
2023-02-06T12:14:37.537Z,31.13
2023-02-06T12:17:15.293Z,32.76
2023-02-06T12:19:48.964Z,33.76
2023-02-06T12:22:26.938Z,35.11
2023-02-06T12:24:57.245Z,35.96
2023-02-06T12:27:44.543Z,37.39
2023-02-06T12:30:24.913Z,37.93
2023-02-06T12:32:57.082Z,38.31
2023-02-06T12:35:33.585Z,39.10
2023-02-06T12:38:08.061Z,39.19
2023-02-06T12:40:36.061Z,40.27
2023-02-06T12:43:08.251Z,40.15
2023-02-06T12:45:44.557Z,41.26
2023-02-06T12:48:26.101Z,41.91
2023-02-06T12:51:17.704Z,40.66
2023-02-06T12:53:49.206Z,40.90
2023-02-06T12:56:17.265Z,41.30
2023-02-06T12:58:51.340Z,41.78
2023-02-06T13:01:32.984Z,41.86
2023-02-06T13:04:05.173Z,41.62
2023-02-06T13:06:43.253Z,42.51
2023-02-06T13:09:19.441Z,41.89
2023-02-06T13:11:47.890Z,42.06
2023-02-06T13:14:24.175Z,42.07
2023-02-06T13:16:57.484Z,42.60
2023-02-06T13:19:38.047Z,43.21
2023-02-06T13:22:16.874Z,43.49
2023-02-06T13:24:46.732Z,44.09
2023-02-06T13:27:25.216Z,43.97
2023-02-06T13:29:56.285Z,44.22
2023-02-06T13:32:24.531Z,44.58
2023-02-06T13:35:05.518Z,43.99
2023-02-06T13:37:41.486Z,44.15
2023-02-06T13:40:29.190Z,43.74
2023-02-06T13:43:18.945Z,44.20
2023-02-06T13:45:51.076Z,44.30
2023-02-06T13:48:48.602Z,44.35
2023-02-06T13:51:22.645Z,43.96
2023-02-06T13:53:59.845Z,44.71
2023-02-06T13:56:30.705Z,43.82
2023-02-06T13:59:06.109Z,43.85
2023-02-06T14:01:34.250Z,43.58
2023-02-06T14:04:07.770Z,43.60
2023-02-06T14:06:35.904Z,44.21
2023-02-06T14:09:15.643Z,44.74
2023-02-06T14:12:07.701Z,44.84
2023-02-06T14:14:43.901Z,45.14
2023-02-06T14:17:30.787Z,45.35
2023-02-06T14:20:07.995Z,45.28
2023-02-06T14:22:37.369Z,45.63
2023-02-06T14:25:31.984Z,45.47
2023-02-06T14:28:12.950Z,45.24
2023-02-06T14:30:44.872Z,45.29
2023-02-06T14:33:19.316Z,45.54
2023-02-06T14:35:47.564Z,45.14
2023-02-06T14:38:18.703Z,45.11
2023-02-06T14:40:50.346Z,45.85
2023-02-06T14:43:21.259Z,45.94
2023-02-06T14:46:05.365Z,45.66
2023-02-06T14:48:40.457Z,46.09
2023-02-06T14:51:18.047Z,46.31
2023-02-06T14:53:52.588Z,46.95
2023-02-06T14:56:46.889Z,47.20
2023-02-06T14:59:16.219Z,48.03
2023-02-06T15:01:46.049Z,48.48
2023-02-06T15:04:14.176Z,48.88
2023-02-06T15:06:43.845Z,49.34
2023-02-06T15:09:32.441Z,48.54
2023-02-06T15:12:02.532Z,48.49
2023-02-06T15:14:32.149Z,48.41
2023-02-06T15:17:01.184Z,49.36
2023-02-06T15:19:35.730Z,49.88
2023-02-06T15:22:06.500Z,50.30
2023-02-06T15:24:53.519Z,49.95
2023-02-06T15:27:37.861Z,50.30
2023-02-06T15:30:22.638Z,50.46
2023-02-06T15:32:52.108Z,51.36
2023-02-06T15:35:22.301Z,50.79
2023-02-06T15:37:50.857Z,51.68
2023-02-06T15:40:27.678Z,51.76
2023-02-06T15:42:55.925Z,51.88
2023-02-06T15:45:31.754Z,52.49
2023-02-06T15:48:03.041Z,52.79
2023-02-06T15:50:31.087Z,52.60
2023-02-06T15:52:59.149Z,52.76
2023-02-06T15:55:27.137Z,53.26
2023-02-06T15:57:56.330Z,53.98
2023-02-06T16:00:26.359Z,55.89
2023-02-06T16:02:57.672Z,56.58
2023-02-06T16:05:30.411Z,56.63
2023-02-06T16:07:59.120Z,56.38
2023-02-06T16:10:28.781Z,55.50
2023-02-06T16:13:00.191Z,54.86
2023-02-06T16:15:36.694Z,55.70
2023-02-06T16:18:23.797Z,57.18
2023-02-06T16:20:52.123Z,57.50
2023-02-06T16:23:23.290Z,57.89
2023-02-06T16:26:07.463Z,59.20
2023-02-06T16:28:49.598Z,59.79
2023-02-06T16:31:17.613Z,59.98
2023-02-06T16:33:48.940Z,59.92
2023-02-06T16:36:18.485Z,60.37
2023-02-06T16:38:57.784Z,60.82
2023-02-06T16:41:37.156Z,60.56
2023-02-06T16:44:10.482Z,60.71
2023-02-06T16:46:38.834Z,60.87
2023-02-06T16:49:14.521Z,61.25
2023-02-06T16:51:43.248Z,61.36
2023-02-06T16:54:37.633Z,60.95
2023-02-06T16:57:09.693Z,61.10
2023-02-06T16:59:37.951Z,61.11
2023-02-06T17:02:12.865Z,61.30
2023-02-06T17:04:41.444Z,60.83
2023-02-06T17:07:12.564Z,60.02
2023-02-06T17:09:41.162Z,60.66
2023-02-06T17:12:11.917Z,61.00
2023-02-06T17:14:40.001Z,61.25
2023-02-06T17:17:09.246Z,61.47
2023-02-06T17:19:37.658Z,61.06
2023-02-06T17:22:06.500Z,61.17
2023-02-06T17:24:36.225Z,60.67
2023-02-06T17:27:05.544Z,59.52
2023-02-06T17:29:33.779Z,59.36
2023-02-06T17:32:02.197Z,60.26
2023-02-06T17:34:30.395Z,61.43
2023-02-06T17:36:58.766Z,60.61
2023-02-06T17:39:27.118Z,60.20
2023-02-06T17:41:55.199Z,60.42
2023-02-06T17:44:23.374Z,60.86
2023-02-06T17:46:51.469Z,60.31
2023-02-06T17:49:19.554Z,61.21
2023-02-06T17:51:47.730Z,61.39
2023-02-06T17:54:15.775Z,62.00
2023-02-06T17:56:43.800Z,61.06
2023-02-06T17:59:12.087Z,61.18
2023-02-06T18:01:40.363Z,61.29
2023-02-06T18:04:12.680Z,60.34
2023-02-06T18:06:40.708Z,59.89
2023-02-06T18:09:10.368Z,60.48
2023-02-06T18:11:38.554Z,61.71
2023-02-06T18:14:06.644Z,62.82
2023-02-06T18:16:38.609Z,62.35
2023-02-06T18:19:06.726Z,62.07
2023-02-06T18:21:34.972Z,62.09
2023-02-06T18:24:03.095Z,62.67
2023-02-06T18:26:31.722Z,62.97
2023-02-06T18:29:03.347Z,62.10
2023-02-06T18:31:35.414Z,62.17
2023-02-06T18:34:07.870Z,62.98
2023-02-06T18:36:36.746Z,63.63
2023-02-06T18:39:06.001Z,63.30
2023-02-06T18:41:53.017Z,63.36
2023-02-06T18:44:21.024Z,62.64
2023-02-06T18:46:49.196Z,61.89
2023-02-06T18:49:17.599Z,62.49
2023-02-06T18:51:45.826Z,63.03
2023-02-06T18:54:13.858Z,62.51
2023-02-06T18:56:42.104Z,63.96
2023-02-06T18:59:10.143Z,64.84
2023-02-06T19:01:38.387Z,63.99
2023-02-06T19:04:06.533Z,62.72
2023-02-06T19:06:36.659Z,63.36
2023-02-06T19:09:07.331Z,64.90
2023-02-06T19:11:36.336Z,64.86
2023-02-06T19:14:04.612Z,64.69
2023-02-06T19:16:32.996Z,64.26
2023-02-06T19:19:01.754Z,64.03
2023-02-06T19:21:29.732Z,64.62
2023-02-06T19:23:59.280Z,64.82
2023-02-06T19:26:28.114Z,64.31
2023-02-06T19:28:56.243Z,63.26
2023-02-06T19:31:24.508Z,63.19
2023-02-06T19:33:54.090Z,63.81
2023-02-06T19:36:23.257Z,63.37
2023-02-06T19:38:54.879Z,62.41
2023-02-06T19:41:24.252Z,62.80
2023-02-06T19:43:53.237Z,63.39
2023-02-06T19:46:22.987Z,63.45
2023-02-06T19:48:51.577Z,62.70
2023-02-06T19:51:21.999Z,63.78
2023-02-06T19:53:50.872Z,64.30
2023-02-06T19:56:22.042Z,64.07
2023-02-06T19:58:55.008Z,64.06
2023-02-06T20:01:23.686Z,64.39
2023-02-06T20:03:52.003Z,64.23
2023-02-06T20:06:20.000Z,63.89
2023-02-06T20:08:48.281Z,63.57
2023-02-06T20:11:18.609Z,64.23
2023-02-06T20:13:47.745Z,64.79
2023-02-06T20:16:15.788Z,64.12
2023-02-06T20:18:44.345Z,63.29
2023-02-06T20:21:22.935Z,63.41
2023-02-06T20:23:51.172Z,63.00
2023-02-06T20:26:20.283Z,63.11
2023-02-06T20:28:48.580Z,64.73
2023-02-06T20:31:17.307Z,64.29
2023-02-06T20:33:46.240Z,64.02
2023-02-06T20:36:15.982Z,64.51
2023-02-06T20:38:47.428Z,63.96
2023-02-06T20:41:15.594Z,64.70
2023-02-06T20:43:43.808Z,65.10
2023-02-06T20:46:17.268Z,65.23
2023-02-06T20:48:46.231Z,65.38
2023-02-06T20:51:14.811Z,65.48
2023-02-06T20:53:42.820Z,64.58
2023-02-06T20:56:11.788Z,63.52
2023-02-06T20:58:39.945Z,63.47
2023-02-06T21:01:15.622Z,63.99
2023-02-06T21:03:44.744Z,63.14
2023-02-06T21:06:14.045Z,62.63
2023-02-06T21:08:42.539Z,62.77
2023-02-06T21:11:10.743Z,62.46
2023-02-06T21:13:40.237Z,62.22
2023-02-06T21:16:09.234Z,61.84
2023-02-06T21:18:37.634Z,62.08
2023-02-06T21:21:09.390Z,62.43
2023-02-06T21:23:38.689Z,63.13
2023-02-06T21:26:07.588Z,64.89
2023-02-06T21:28:36.300Z,64.81
2023-02-06T21:31:06.112Z,63.74
2023-02-06T21:33:34.465Z,63.85
2023-02-06T21:36:03.661Z,64.01
2023-02-06T21:38:32.067Z,64.90
2023-02-06T21:41:18.934Z,64.88
2023-02-06T21:43:47.069Z,64.85
2023-02-06T21:46:19.496Z,64.54
2023-02-06T21:48:51.651Z,64.39
2023-02-06T21:51:20.356Z,64.65
2023-02-06T21:53:48.441Z,64.34
2023-02-06T21:56:23.498Z,63.98
2023-02-06T21:58:51.727Z,64.40
2023-02-06T22:01:21.999Z,64.55
2023-02-06T22:03:50.610Z,63.99
2023-02-06T22:06:20.076Z,64.26
2023-02-06T22:08:51.716Z,65.21
2023-02-06T22:11:21.133Z,65.30
2023-02-06T22:13:50.095Z,64.60
2023-02-06T22:16:19.863Z,63.36
2023-02-06T22:18:47.886Z,62.32
2023-02-06T22:21:20.694Z,61.68
2023-02-06T22:23:49.590Z,62.16
2023-02-06T22:26:19.863Z,63.24
2023-02-06T22:28:48.337Z,63.28
2023-02-06T22:31:19.506Z,63.09
2023-02-06T22:33:48.023Z,64.23
2023-02-06T22:36:18.114Z,65.63
2023-02-06T22:38:46.702Z,65.37
2023-02-06T22:41:16.548Z,64.76
2023-02-06T22:43:45.360Z,64.90
2023-02-06T22:46:33.922Z,64.27
2023-02-06T22:49:02.033Z,63.64
2023-02-06T22:51:30.017Z,63.48
2023-02-06T22:53:58.100Z,62.71
2023-02-06T22:56:28.150Z,63.08
2023-02-06T22:58:57.829Z,63.70
2023-02-06T23:01:29.145Z,64.89
2023-02-06T23:03:57.928Z,65.10
2023-02-06T23:06:27.229Z,65.45
2023-02-06T23:08:56.533Z,64.67
2023-02-06T23:11:24.642Z,65.02
2023-02-06T23:13:57.339Z,64.30
2023-02-06T23:16:25.530Z,63.86
2023-02-06T23:18:53.609Z,63.40
2023-02-06T23:21:23.147Z,64.60
2023-02-06T23:23:51.510Z,65.22
2023-02-06T23:26:19.726Z,65.38
2023-02-06T23:28:47.975Z,65.40
2023-02-06T23:31:16.662Z,64.76
2023-02-06T23:33:44.830Z,65.57
2023-02-06T23:36:14.784Z,65.29
2023-02-06T23:38:43.691Z,65.95
2023-02-06T23:41:16.229Z,66.10
2023-02-06T23:43:44.982Z,66.18
2023-02-06T23:46:13.215Z,65.50
2023-02-06T23:48:41.262Z,65.65
2023-02-06T23:51:09.366Z,66.29
2023-02-06T23:53:37.409Z,67.03
2023-02-06T23:56:17.012Z,67.41
2023-02-06T23:58:45.067Z,68.19
